Time;durP1;ratioP1;P1;durP2;ratioP2;P2;SDS_P1;SDS_P2;PMS_P1;PMS_P2;Temp;Humidity;BMP_temperature;BMP_pressure;BME280_temperature;BME280_humidity;BME280_pressure;Samples;Min_cycle;Max_cycle;Signal;HPM_P1;HPM_P2
2021/05/29 00:00:15;;;;;;;7.78;4.97;;;16.60;65.00;;;;;;5049978;28;20467;-70
2021/05/29 00:02:41;;;;;;;7.65;4.43;;;16.60;65.20;;;;;;5054627;28;20057;-71
2021/05/29 00:05:08;;;;;;;12.45;6.75;;;16.60;65.20;;;;;;5054953;28;20103;-68
2021/05/29 00:07:34;;;;;;;7.65;4.93;;;16.50;65.70;;;;;;5066521;28;20187;-68
2021/05/29 00:10:00;;;;;;;8.07;4.80;;;16.40;66.00;;;;;;5057911;28;20224;-70
2021/05/29 00:12:26;;;;;;;7.93;4.35;;;16.30;66.20;;;;;;5057346;28;20075;-70
2021/05/29 00:14:53;;;;;;;7.57;5.15;;;16.30;66.40;;;;;;5051654;28;20033;-70
2021/05/29 00:17:20;;;;;;;10.07;6.22;;;16.30;66.50;;;;;;5051509;28;20352;-68
2021/05/29 00:19:46;;;;;;;10.13;5.68;;;16.30;66.80;;;;;;5059442;28;20063;-68
2021/05/29 00:22:12;;;;;;;8.75;5.82;;;16.20;67.10;;;;;;5051002;28;20093;-68
2021/05/29 00:24:37;;;;;;;9.90;5.53;;;16.20;67.40;;;;;;5061676;28;20036;-68
2021/05/29 00:27:03;;;;;;;9.25;5.65;;;16.20;67.50;;;;;;5055173;28;20032;-68
2021/05/29 00:29:29;;;;;;;9.32;5.97;;;16.10;67.60;;;;;;5064251;28;20033;-68
2021/05/29 00:31:55;;;;;;;10.60;6.80;;;16.10;67.80;;;;;;5060359;28;20106;-68
2021/05/29 00:34:20;;;;;;;10.98;5.85;;;16.10;68.00;;;;;;5049967;28;20454;-69
2021/05/29 00:36:46;;;;;;;10.57;6.30;;;16.10;68.10;;;;;;5053979;28;20033;-69
2021/05/29 00:39:12;;;;;;;9.15;5.80;;;16.10;68.30;;;;;;5049923;28;20033;-69
2021/05/29 00:41:38;;;;;;;11.18;5.60;;;16.00;68.30;;;;;;5052202;28;20104;-69
2021/05/29 00:44:04;;;;;;;8.88;5.38;;;16.00;68.50;;;;;;5062734;28;20028;-69
2021/05/29 00:46:30;;;;;;;10.35;5.28;;;16.00;68.60;;;;;;5048068;28;20036;-69
2021/05/29 00:48:56;;;;;;;9.32;5.78;;;15.90;68.70;;;;;;5053829;28;20085;-69
2021/05/29 00:51:22;;;;;;;9.80;6.35;;;15.90;68.60;;;;;;5057915;28;20111;-69
2021/05/29 00:53:48;;;;;;;10.15;5.43;;;15.90;68.60;;;;;;5058123;28;20119;-69
2021/05/29 00:56:14;;;;;;;9.70;5.10;;;15.90;68.70;;;;;;5060181;28;20041;-69
2021/05/29 00:58:41;;;;;;;9.35;5.50;;;15.90;68.70;;;;;;5054329;28;20561;-70
2021/05/29 01:01:07;;;;;;;9.15;5.32;;;15.90;68.60;;;;;;5052377;28;20115;-69
2021/05/29 01:03:36;;;;;;;8.63;5.63;;;15.90;68.50;;;;;;5058484;28;20038;-70
2021/05/29 01:06:03;;;;;;;9.98;5.20;;;15.90;68.40;;;;;;5050402;28;20079;-69
2021/05/29 01:08:29;;;;;;;8.43;4.93;;;15.90;68.40;;;;;;5058895;28;20139;-69
2021/05/29 01:10:55;;;;;;;7.85;4.57;;;15.90;68.20;;;;;;5055228;28;20109;-69
2021/05/29 01:13:26;;;;;;;8.80;5.13;;;16.00;68.20;;;;;;5052802;28;20039;-70
2021/05/29 01:15:54;;;;;;;9.68;5.18;;;16.00;68.10;;;;;;5053726;28;20443;-70
2021/05/29 01:18:20;;;;;;;8.18;5.32;;;16.00;68.10;;;;;;5049732;28;20484;-70
2021/05/29 01:20:47;;;;;;;7.68;4.43;;;15.90;67.80;;;;;;5058691;28;20028;-70
2021/05/29 01:23:13;;;;;;;7.43;4.38;;;15.90;67.70;;;;;;5064446;28;20024;-70
2021/05/29 01:25:47;;;;;;;6.93;4.30;;;15.90;67.80;;;;;;5055576;28;20060;-70
2021/05/29 01:28:14;;;;;;;;;;;15.80;67.80;;;;;;5050389;28;20021;-70
2021/05/29 01:30:45;;;;;;;6.50;4.03;;;16.00;67.80;;;;;;5055032;28;19916;-70
2021/05/29 01:33:13;;;;;;;7.35;3.88;;;15.90;67.30;;;;;;5055922;28;20399;-69
2021/05/29 01:35:39;;;;;;;6.72;3.83;;;15.80;67.30;;;;;;5053566;28;20090;-69
2021/05/29 01:38:05;;;;;;;7.40;4.32;;;15.80;67.30;;;;;;5059262;28;20033;-69
2021/05/29 01:40:31;;;;;;;7.68;4.05;;;15.70;67.30;;;;;;5052715;28;20029;-69
2021/05/29 01:42:58;;;;;;;7.45;4.50;;;15.70;67.30;;;;;;5051181;28;20102;-69
2021/05/29 01:45:28;;;;;;;8.35;4.25;;;15.70;67.30;;;;;;5054937;28;20033;-69
2021/05/29 01:47:54;;;;;;;8.93;4.13;;;15.70;67.20;;;;;;5060076;28;20367;-69
2021/05/29 01:50:20;;;;;;;8.45;4.10;;;15.60;67.80;;;;;;5054056;28;20033;-69
2021/05/29 01:52:56;;;;;;;6.05;3.67;;;15.60;67.20;;;;;;5054000;28;20029;-69
2021/05/29 01:55:25;;;;;;;6.80;3.78;;;15.60;67.20;;;;;;5057891;28;20375;-69
2021/05/29 01:57:51;;;;;;;7.25;4.03;;;15.60;67.20;;;;;;5049261;28;20033;-69
2021/05/29 02:00:19;;;;;;;8.30;3.97;;;15.50;67.10;;;;;;5048467;28;20090;-69
2021/05/29 02:02:45;;;;;;;6.60;3.95;;;15.50;67.20;;;;;;5053568;28;20163;-69
2021/05/29 02:05:17;;;;;;;7.93;3.60;;;15.50;67.20;;;;;;5059434;28;20123;-69
2021/05/29 02:07:43;;;;;;;5.95;3.22;;;15.50;67.30;;;;;;5074997;28;20020;-69
2021/05/29 02:10:12;;;;;;;5.95;3.15;;;15.50;67.30;;;;;;5066340;28;20467;-69
2021/05/29 02:12:43;;;;;;;8.85;4.45;;;15.40;67.30;;;;;;5052357;28;20494;-69
2021/05/29 02:15:11;;;;;;;5.43;3.42;;;15.30;67.10;;;;;;5052560;28;20029;-69
2021/05/29 02:17:38;;;;;;;8.23;3.90;;;15.30;67.10;;;;;;5053152;28;20033;-69
2021/05/29 02:20:05;;;;;;;6.45;2.90;;;15.30;67.20;;;;;;5055797;28;20483;-69
2021/05/29 02:22:31;;;;;;;6.85;3.53;;;15.20;67.30;;;;;;5060183;28;20501;-69
2021/05/29 02:24:57;;;;;;;5.10;2.70;;;15.20;67.40;;;;;;5050267;28;20032;-69
2021/05/29 02:27:22;;;;;;;9.35;3.33;;;15.20;67.50;;;;;;5052261;28;20029;-69
2021/05/29 02:29:48;;;;;;;6.00;3.40;;;15.20;67.50;;;;;;5050290;28;20123;-69
2021/05/29 02:32:14;;;;;;;7.05;4.13;;;15.20;67.60;;;;;;5058265;28;20471;-69
2021/05/29 02:34:39;;;;;;;8.23;4.30;;;15.20;67.70;;;;;;5062421;28;20093;-69
2021/05/29 02:37:05;;;;;;;9.90;3.30;;;15.10;68.30;;;;;;5066307;28;20040;-69
2021/05/29 02:39:31;;;;;;;6.22;3.78;;;15.20;67.80;;;;;;5055621;28;20108;-69
2021/05/29 02:41:57;;;;;;;8.48;3.75;;;15.10;67.80;;;;;;5052245;28;20146;-69
2021/05/29 02:44:23;;;;;;;7.90;3.60;;;15.10;67.90;;;;;;5065532;28;20413;-69
2021/05/29 02:46:49;;;;;;;6.65;3.95;;;15.10;67.90;;;;;;5070090;28;20060;-69
2021/05/29 02:49:16;;;;;;;8.20;4.45;;;15.10;68.00;;;;;;5052111;28;20494;-69
2021/05/29 02:51:41;;;;;;;7.80;4.20;;;15.10;68.10;;;;;;5047877;28;20433;-69
2021/05/29 02:54:08;;;;;;;6.57;4.32;;;15.00;68.20;;;;;;5057460;28;20040;-70
2021/05/29 02:56:33;;;;;;;9.15;4.60;;;15.00;68.30;;;;;;5067710;28;20037;-69
2021/05/29 02:58:59;;;;;;;9.32;4.40;;;14.90;68.40;;;;;;5065162;28;20359;-70
2021/05/29 03:01:25;;;;;;;7.20;4.47;;;14.90;68.50;;;;;;5063781;28;20038;-69
2021/05/29 03:03:50;;;;;;;8.63;5.10;;;14.90;68.70;;;;;;5061826;28;20486;-70
2021/05/29 03:06:16;;;;;;;8.82;5.45;;;14.90;68.80;;;;;;5055633;28;20033;-69
2021/05/29 03:08:42;;;;;;;8.75;5.20;;;14.80;68.90;;;;;;5050368;28;20116;-69
2021/05/29 03:11:08;;;;;;;10.45;5.88;;;14.90;68.90;;;;;;5054633;28;20108;-70
2021/05/29 03:13:34;;;;;;;10.63;5.38;;;14.80;69.00;;;;;;5067155;28;20502;-69
2021/05/29 03:16:00;;;;;;;10.63;5.28;;;14.80;69.10;;;;;;5053403;28;20115;-70
2021/05/29 03:18:27;;;;;;;8.45;4.80;;;14.80;69.10;;;;;;5057556;28;20100;-69
2021/05/29 03:20:53;;;;;;;10.77;6.53;;;14.70;69.10;;;;;;5055213;28;20691;-69
2021/05/29 03:23:18;;;;;;;8.20;4.90;;;14.70;69.20;;;;;;5051318;28;20048;-69
2021/05/29 03:25:44;;;;;;;9.23;5.05;;;14.70;69.30;;;;;;5059181;28;20426;-69
2021/05/29 03:28:09;;;;;;;10.25;5.03;;;14.70;69.40;;;;;;5058208;28;20033;-70
2021/05/29 03:30:36;;;;;;;9.68;5.90;;;14.60;69.40;;;;;;5049283;28;20196;-69
2021/05/29 03:33:02;;;;;;;9.68;5.80;;;14.60;69.50;;;;;;5051398;28;20036;-70
2021/05/29 03:35:29;;;;;;;9.40;5.50;;;14.60;69.60;;;;;;5051172;28;20037;-70
2021/05/29 03:37:54;;;;;;;9.15;5.88;;;14.60;69.70;;;;;;5057963;28;20502;-70
2021/05/29 03:40:21;;;;;;;17.48;7.10;;;14.60;69.80;;;;;;5058557;28;20037;-70
2021/05/29 03:42:46;;;;;;;10.88;6.60;;;14.60;69.90;;;;;;5053716;28;20075;-70
2021/05/29 03:45:15;;;;;;;11.40;6.82;;;14.60;70.00;;;;;;5061124;28;20438;-70
2021/05/29 03:47:42;;;;;;;12.25;6.38;;;14.50;70.00;;;;;;5058925;28;20103;-70
2021/05/29 03:50:10;;;;;;;9.45;6.43;;;14.50;70.10;;;;;;5059541;28;20086;-70
2021/05/29 03:52:36;;;;;;;12.90;6.47;;;14.50;70.20;;;;;;5051741;28;20029;-70
2021/05/29 03:55:03;;;;;;;12.38;6.85;;;14.50;70.30;;;;;;5060867;28;20090;-70
2021/05/29 03:57:29;;;;;;;14.95;7.57;;;14.50;70.30;;;;;;5056701;28;20071;-70
2021/05/29 03:59:55;;;;;;;12.90;7.15;;;14.50;70.40;;;;;;5063412;28;20064;-70
2021/05/29 04:02:21;;;;;;;11.25;6.55;;;14.50;70.40;;;;;;5063551;28;20055;-70
2021/05/29 04:04:46;;;;;;;11.73;6.18;;;14.50;70.50;;;;;;5050947;28;20351;-70
2021/05/29 04:07:12;;;;;;;11.98;7.18;;;14.50;70.50;;;;;;5059974;28;20041;-70
2021/05/29 04:09:37;;;;;;;10.13;6.60;;;14.50;70.50;;;;;;5068377;28;20058;-70
2021/05/29 04:12:04;;;;;;;12.98;6.93;;;14.50;70.60;;;;;;5055611;28;20036;-70
2021/05/29 04:14:29;;;;;;;10.63;7.22;;;14.50;70.60;;;;;;5050134;28;20029;-70
2021/05/29 04:16:55;;;;;;;10.68;6.25;;;14.50;70.70;;;;;;5050072;28;20040;-70
2021/05/29 04:19:20;;;;;;;10.50;6.63;;;14.50;70.80;;;;;;5055592;28;20033;-70
2021/05/29 04:21:46;;;;;;;10.20;6.72;;;14.50;70.80;;;;;;5061324;28;20099;-70
2021/05/29 04:24:12;;;;;;;11.93;7.10;;;14.50;70.80;;;;;;5065899;28;20028;-70
2021/05/29 04:26:38;;;;;;;11.55;6.90;;;14.50;70.90;;;;;;5062476;28;20051;-70
2021/05/29 04:29:04;;;;;;;12.00;6.63;;;14.50;71.00;;;;;;5049198;28;20040;-70
2021/05/29 04:31:30;;;;;;;10.73;6.97;;;14.60;71.00;;;;;;5048826;28;20057;-70
2021/05/29 04:33:55;;;;;;;11.95;6.47;;;14.60;71.00;;;;;;5059440;28;20478;-70
2021/05/29 04:36:21;;;;;;;10.10;6.80;;;14.60;71.10;;;;;;5054927;28;20025;-70
2021/05/29 04:38:46;;;;;;;12.23;7.60;;;14.50;71.20;;;;;;5052607;28;20492;-70
2021/05/29 04:41:12;;;;;;;13.55;7.80;;;14.50;71.40;;;;;;5061069;28;20134;-70
2021/05/29 04:43:38;;;;;;;10.50;6.85;;;14.50;71.50;;;;;;5054617;28;20047;-70
2021/05/29 04:46:04;;;;;;;12.38;7.45;;;14.50;71.60;;;;;;5048918;28;20033;-70
2021/05/29 04:48:29;;;;;;;12.40;7.60;;;14.50;71.70;;;;;;5055121;28;20033;-70
2021/05/29 04:53:41;;;;;;;16.75;8.30;;;14.60;71.90;;;;;;5054390;28;20138;-70
2021/05/29 04:56:08;;;;;;;11.70;8.32;;;14.60;72.00;;;;;;5062016;28;20485;-70
2021/05/29 04:58:34;;;;;;;15.43;9.77;;;14.70;72.20;;;;;;5051518;28;20048;-70
2021/05/29 05:00:59;;;;;;;14.65;7.85;;;14.70;72.30;;;;;;5054410;28;20048;-70
2021/05/29 05:03:25;;;;;;;11.25;7.35;;;14.80;72.40;;;;;;5052474;28;20115;-70
2021/05/29 05:05:51;;;;;;;13.70;8.50;;;14.80;72.40;;;;;;5061880;28;20044;-70
2021/05/29 05:08:17;;;;;;;14.88;9.23;;;14.90;72.50;;;;;;5049258;28;20097;-70
2021/05/29 05:10:43;;;;;;;13.63;9.38;;;14.90;72.40;;;;;;5054536;28;20478;-70
2021/05/29 05:13:09;;;;;;;16.48;9.30;;;15.00;72.50;;;;;;5062628;28;20082;-71
2021/05/29 05:15:34;;;;;;;15.82;8.68;;;15.00;72.40;;;;;;5051940;28;20474;-70
2021/05/29 05:18:00;;;;;;;13.60;9.15;;;15.00;72.60;;;;;;5049339;28;20108;-70
2021/05/29 05:20:26;;;;;;;14.65;8.77;;;15.00;72.70;;;;;;5051841;28;20065;-70
2021/05/29 05:22:51;;;;;;;19.45;10.60;;;15.10;72.80;;;;;;5050659;28;20029;-69
2021/05/29 05:25:18;;;;;;;12.65;9.05;;;15.10;72.90;;;;;;5048203;28;20037;-70
2021/05/29 05:27:44;;;;;;;16.05;10.48;;;15.10;73.00;;;;;;5052017;28;20032;-70
2021/05/29 05:30:12;;;;;;;15.48;9.40;;;15.10;73.00;;;;;;5064718;28;20044;-70
2021/05/29 05:32:38;;;;;;;13.68;8.52;;;15.20;73.00;;;;;;5053728;28;20140;-70
2021/05/29 05:35:08;;;;;;;17.25;9.68;;;15.30;72.80;;;;;;5057965;28;20120;-70
2021/05/29 05:37:35;;;;;;;16.08;9.52;;;15.30;72.80;;;;;;5053906;28;20052;-69
2021/05/29 05:40:02;;;;;;;15.40;10.82;;;15.40;72.80;;;;;;5053186;28;20028;-70
2021/05/29 05:42:27;;;;;;;19.30;10.13;;;15.40;72.80;;;;;;5056192;28;20079;-71
2021/05/29 05:44:53;;;;;;;12.98;10.25;;;15.40;72.80;;;;;;5052799;28;20418;-70
2021/05/29 05:47:19;;;;;;;15.88;9.50;;;15.50;72.80;;;;;;5052748;28;20029;-70
2021/05/29 05:49:44;;;;;;;17.27;9.70;;;15.60;72.50;;;;;;5062171;28;20046;-71
2021/05/29 05:52:10;;;;;;;13.48;8.90;;;15.80;72.10;;;;;;5065669;28;20051;-70
2021/05/29 05:54:36;;;;;;;14.90;10.30;;;15.90;71.60;;;;;;5069505;28;20510;-68
2021/05/29 05:57:02;;;;;;;22.83;9.10;;;16.00;71.30;;;;;;5067727;28;20170;-68
2021/05/29 05:59:28;;;;;;;12.70;9.18;;;16.00;70.70;;;;;;5044918;28;20494;-68
2021/05/29 06:01:54;;;;;;;14.52;8.93;;;16.10;70.50;;;;;;5053449;28;20052;-68
2021/05/29 06:04:19;;;;;;;16.20;9.32;;;16.30;70.30;;;;;;5056112;28;20487;-68
2021/05/29 06:06:46;;;;;;;13.80;8.27;;;16.50;69.80;;;;;;5066992;28;20105;-68
2021/05/29 06:09:11;;;;;;;12.98;7.72;;;16.60;69.30;;;;;;5059514;28;20033;-68
2021/05/29 06:11:37;;;;;;;14.70;8.20;;;16.70;68.80;;;;;;5055808;28;20036;-68
2021/05/29 06:19:21;;;;;;;10.20;7.25;;;17.10;67.30;;;;;;5063828;28;20506;-68
2021/05/29 06:21:50;;;;;;;14.50;8.27;;;17.20;66.40;;;;;;5065439;28;20032;-68
2021/05/29 06:24:19;;;;;;;13.68;7.63;;;17.40;65.90;;;;;;5058543;28;20891;-68
2021/05/29 06:26:45;;;;;;;11.40;7.82;;;17.50;65.20;;;;;;5063194;28;20017;-68
2021/05/29 06:29:10;;;;;;;12.13;8.35;;;17.50;64.80;;;;;;5065403;28;20122;-68
2021/05/29 06:31:36;;;;;;;9.60;7.05;;;17.60;64.40;;;;;;5065906;28;20057;-68
2021/05/29 06:34:03;;;;;;;12.35;9.15;;;17.70;64.30;;;;;;5034681;28;20108;-68
2021/05/29 06:36:29;;;;;;;11.75;7.90;;;17.80;63.70;;;;;;5059408;28;20178;-68
2021/05/29 06:38:55;;;;;;;11.77;7.32;;;17.80;63.20;;;;;;5070923;28;20028;-68
2021/05/29 06:41:23;;;;;;;14.07;8.68;;;17.90;64.00;;;;;;5055024;28;20025;-68
2021/05/29 06:43:48;;;;;;;10.95;7.45;;;18.00;62.60;;;;;;5056994;28;20042;-68
2021/05/29 06:46:14;;;;;;;11.85;8.00;;;18.10;62.60;;;;;;5067564;28;20029;-68
2021/05/29 06:48:39;;;;;;;11.85;8.73;;;18.30;62.30;;;;;;5049522;28;20053;-68
2021/05/29 06:51:06;;;;;;;10.85;7.85;;;18.50;61.40;;;;;;5033093;28;20159;-68
2021/05/29 06:53:40;;;;;;;13.93;9.77;;;18.60;61.40;;;;;;5052455;28;20542;-68
2021/05/29 06:58:53;;;;;;;12.07;7.47;;;18.90;60.40;;;;;;5055288;28;20047;-68
2021/05/29 07:01:20;;;;;;;13.68;9.02;;;18.90;60.30;;;;;;5059674;28;20781;-68
2021/05/29 07:03:47;;;;;;;10.43;6.65;;;18.90;60.20;;;;;;5060676;28;20434;-69
2021/05/29 07:06:14;;;;;;;11.00;7.47;;;19.10;60.20;;;;;;5054348;28;20037;-68
2021/05/29 07:08:39;;;;;;;10.70;7.05;;;19.30;59.80;;;;;;5066093;28;20082;-68
2021/05/29 07:11:06;;;;;;;13.77;7.82;;;19.40;59.80;;;;;;5053276;28;20077;-69
2021/05/29 07:13:32;;;;;;;11.18;8.77;;;19.70;59.30;;;;;;5069860;28;20031;-68
2021/05/29 07:15:59;;;;;;;10.57;7.05;;;19.90;58.40;;;;;;5065030;28;20440;-68
2021/05/29 07:18:29;;;;;;;12.70;8.40;;;20.10;58.10;;;;;;5055657;28;20055;-69
2021/05/29 07:20:55;;;;;;;11.20;8.25;;;20.20;57.30;;;;;;5066152;28;20031;-69
2021/05/29 07:23:21;;;;;;;12.48;8.63;;;20.40;56.80;;;;;;5070594;28;20466;-69
2021/05/29 07:25:47;;;;;;;13.30;8.85;;;20.50;56.90;;;;;;5063595;28;20047;-69
2021/05/29 07:28:12;;;;;;;12.18;8.48;;;20.50;56.50;;;;;;5066999;28;20052;-69
2021/05/29 07:30:38;;;;;;;11.10;8.27;;;20.80;57.00;;;;;;5055251;28;20031;-69
2021/05/29 07:33:05;;;;;;;11.65;7.47;;;21.00;56.10;;;;;;5066508;28;20060;-69
2021/05/29 07:35:30;;;;;;;10.75;7.15;;;21.10;54.90;;;;;;5071409;28;20038;-69
2021/05/29 07:37:56;;;;;;;11.60;7.25;;;21.20;54.30;;;;;;5064675;28;20111;-69
2021/05/29 07:40:23;;;;;;;10.43;6.97;;;21.30;54.10;;;;;;5060963;28;20040;-69
2021/05/29 07:42:49;;;;;;;10.35;7.20;;;21.40;54.10;;;;;;5057154;28;20025;-68
2021/05/29 07:45:15;;;;;;;9.80;7.32;;;21.60;53.60;;;;;;5060984;28;20098;-69
2021/05/29 07:47:41;;;;;;;10.57;6.75;;;21.80;53.30;;;;;;5053468;28;20040;-69
2021/05/29 07:50:07;;;;;;;11.27;6.85;;;21.90;53.60;;;;;;5049101;28;20486;-69
2021/05/29 07:52:33;;;;;;;13.07;8.23;;;22.00;52.90;;;;;;5061305;28;20035;-69
2021/05/29 07:54:59;;;;;;;10.88;6.82;;;22.10;52.70;;;;;;5065545;28;20041;-69
2021/05/29 07:57:25;;;;;;;12.20;7.13;;;22.30;53.30;;;;;;5059667;28;20067;-69
2021/05/29 07:59:51;;;;;;;9.23;5.90;;;22.60;52.00;;;;;;5068754;28;20032;-69
2021/05/29 08:02:16;;;;;;;11.10;6.60;;;22.60;52.20;;;;;;5055184;28;20482;-68
2021/05/29 08:04:42;;;;;;;10.02;7.00;;;22.80;52.00;;;;;;5050768;28;20033;-69
2021/05/29 08:07:08;;;;;;;9.00;6.20;;;22.80;51.60;;;;;;5051966;28;20037;-69
2021/05/29 08:09:33;;;;;;;8.68;5.97;;;23.10;51.70;;;;;;5051619;28;20063;-68
2021/05/29 08:11:59;;;;;;;12.55;6.35;;;23.30;50.80;;;;;;5050787;28;20321;-69
2021/05/29 08:14:25;;;;;;;10.85;5.68;;;23.60;50.40;;;;;;5049626;28;20040;-68
2021/05/29 08:16:51;;;;;;;9.27;5.90;;;23.90;49.30;;;;;;5051170;28;20471;-69
2021/05/29 08:19:16;;;;;;;9.25;6.68;;;24.00;48.90;;;;;;5058054;28;20445;-70
2021/05/29 08:21:45;;;;;;;10.38;6.18;;;24.10;48.60;;;;;;5062717;28;20024;-69
2021/05/29 08:24:11;;;;;;;7.93;5.32;;;24.10;47.80;;;;;;5061544;28;20473;-70
2021/05/29 08:26:37;;;;;;;7.90;4.90;;;24.20;48.90;;;;;;5063886;28;20108;-70
2021/05/29 08:29:04;;;;;;;8.02;5.60;;;24.30;48.80;;;;;;5053958;28;20044;-69
2021/05/29 08:31:30;;;;;;;9.07;5.65;;;24.40;48.50;;;;;;5065732;28;20048;-69
2021/05/29 08:33:56;;;;;;;7.45;5.70;;;24.30;47.80;;;;;;5054601;28;20020;-69
2021/05/29 08:36:21;;;;;;;8.85;5.88;;;24.10;48.40;;;;;;5066149;28;20086;-69
2021/05/29 08:38:48;;;;;;;9.65;5.72;;;24.20;48.60;;;;;;5054670;28;20486;-70
2021/05/29 08:41:15;;;;;;;9.70;6.43;;;24.00;48.80;;;;;;5059516;28;20036;-68
2021/05/29 08:43:41;;;;;;;8.75;5.35;;;23.90;49.00;;;;;;5065849;28;20170;-70
2021/05/29 08:46:07;;;;;;;6.82;4.57;;;24.10;50.20;;;;;;5054895;28;20376;-70
2021/05/29 08:48:33;;;;;;;11.65;6.63;;;24.30;49.30;;;;;;5053084;28;20059;-70
2021/05/29 08:51:15;;;;;;;9.13;5.70;;;24.60;48.60;;;;;;5052283;28;20033;-70
2021/05/29 08:53:48;;;;;;;7.70;5.60;;;24.50;47.00;;;;;;5050294;28;20037;-71
2021/05/29 08:56:15;;;;;;;8.32;5.60;;;24.20;48.10;;;;;;5049226;28;20028;-70
2021/05/29 08:58:41;;;;;;;7.93;5.28;;;24.00;49.00;;;;;;5050344;28;20029;-71
2021/05/29 09:01:08;;;;;;;8.80;5.53;;;23.80;48.50;;;;;;5054792;28;20020;-70
2021/05/29 09:03:54;;;;;;;8.13;5.53;;;23.50;48.40;;;;;;5070369;28;20062;-70
2021/05/29 09:06:31;;;;;;;8.82;4.95;;;23.10;49.90;;;;;;5068752;28;20668;-70
2021/05/29 09:09:11;;;;;;;9.93;5.55;;;22.90;50.60;;;;;;5051362;28;20029;-70
2021/05/29 09:12:02;;;;;;;7.70;4.88;;;23.00;52.40;;;;;;5070423;28;20033;-70
2021/05/29 09:14:39;;;;;;;9.95;5.40;;;23.00;51.40;;;;;;5057455;28;20140;-70
2021/05/29 09:17:19;;;;;;;10.07;5.30;;;23.30;51.90;;;;;;5060133;28;20032;-70
2021/05/29 09:19:55;;;;;;;8.48;5.25;;;23.80;51.00;;;;;;5058212;28;20402;-69
2021/05/29 09:22:26;;;;;;;9.85;5.75;;;24.10;49.90;;;;;;5067435;28;20099;-70
2021/05/29 09:24:56;;;;;;;8.55;5.50;;;24.40;49.10;;;;;;5065367;28;20025;-69
2021/05/29 09:27:22;;;;;;;9.38;6.32;;;24.20;49.50;;;;;;5059640;28;20028;-69
2021/05/29 09:29:48;;;;;;;10.77;6.85;;;24.10;50.00;;;;;;5067009;28;20017;-69
2021/05/29 09:32:13;;;;;;;9.73;5.72;;;23.80;49.30;;;;;;5056192;28;20122;-70
2021/05/29 09:34:48;;;;;;;9.82;6.13;;;23.60;50.60;;;;;;5056048;28;20161;-70
2021/05/29 09:37:16;;;;;;;7.60;5.72;;;23.40;51.40;;;;;;5056422;28;20099;-70
2021/05/29 09:39:45;;;;;;;10.38;6.55;;;23.30;50.30;;;;;;5068518;28;20104;-70
2021/05/29 09:42:12;;;;;;;10.45;5.70;;;23.00;50.10;;;;;;5056313;28;20044;-70
2021/05/29 09:44:39;;;;;;;11.52;6.70;;;22.90;50.70;;;;;;5055727;28;20037;-70
2021/05/29 09:47:10;;;;;;;12.27;6.72;;;23.10;51.10;;;;;;5064558;28;20025;-69
2021/05/29 09:49:47;;;;;;;9.82;6.00;;;23.10;50.10;;;;;;5069257;28;20013;-69
2021/05/29 09:52:31;;;;;;;11.00;7.43;;;23.00;50.30;;;;;;5056570;28;20040;-69
2021/05/29 09:55:01;;;;;;;8.38;6.20;;;23.30;50.30;;;;;;5056420;28;20036;-70
2021/05/29 09:57:27;;;;;;;8.10;4.95;;;23.80;50.00;;;;;;5056076;28;20486;-70
2021/05/29 09:59:58;;;;;;;9.40;5.50;;;24.40;52.00;;;;;;5055470;28;20039;-70
2021/05/29 10:02:24;;;;;;;9.25;6.78;;;24.90;49.30;;;;;;5056433;28;20429;-70
2021/05/29 10:04:54;;;;;;;7.68;5.30;;;25.20;48.30;;;;;;5056621;28;20094;-70
2021/05/29 10:07:22;;;;;;;9.60;6.32;;;25.20;48.70;;;;;;5056243;28;20037;-70
2021/05/29 10:09:48;;;;;;;8.82;5.47;;;25.20;46.30;;;;;;5063809;28;20028;-69
2021/05/29 10:12:14;;;;;;;6.50;4.57;;;25.40;48.40;;;;;;5065982;28;20071;-70
2021/05/29 10:14:41;;;;;;;7.25;4.53;;;25.80;48.50;;;;;;5055361;28;20452;-70
2021/05/29 10:17:12;;;;;;;7.63;4.43;;;25.90;46.70;;;;;;5054910;28;20429;-69
2021/05/29 10:19:43;;;;;;;9.13;4.78;;;25.80;45.70;;;;;;5056119;28;20025;-70
2021/05/29 10:22:12;;;;;;;9.35;5.82;;;25.60;46.30;;;;;;5053975;28;20036;-69
2021/05/29 10:24:39;;;;;;;8.18;5.78;;;25.80;48.10;;;;;;5069279;28;20149;-69
2021/05/29 10:27:09;;;;;;;7.68;5.25;;;26.00;46.30;;;;;;5068095;28;20406;-68
2021/05/29 10:29:36;;;;;;;8.57;4.68;;;25.90;44.30;;;;;;5054715;28;20286;-70
2021/05/29 10:32:17;;;;;;;7.78;5.20;;;25.90;44.90;;;;;;5069040;28;20049;-70
2021/05/29 10:34:53;;;;;;;9.20;6.15;;;25.90;43.80;;;;;;5052051;28;20075;-70
2021/05/29 10:37:35;;;;;;;8.05;4.13;;;25.50;43.50;;;;;;5052214;28;20427;-70
2021/05/29 10:40:21;;;;;;;6.18;3.50;;;25.10;44.80;;;;;;5071665;28;20031;-69
2021/05/29 10:43:07;;;;;;;8.60;5.00;;;24.70;46.10;;;;;;5055027;28;20090;-69
2021/05/29 10:45:37;;;;;;;7.55;4.47;;;24.90;47.70;;;;;;5058251;28;20101;-69
2021/05/29 10:48:23;;;;;;;6.50;4.05;;;25.00;47.40;;;;;;5061007;28;20099;-70
2021/05/29 10:53:45;;;;;;;7.13;4.43;;;25.40;47.00;;;;;;5054837;28;20032;-70
2021/05/29 10:58:55;;;;;;;7.68;4.72;;;25.40;44.70;;;;;;5065482;28;20062;-70
2021/05/29 11:01:22;;;;;;;7.57;4.57;;;25.10;44.20;;;;;;5057937;28;20028;-70
2021/05/29 11:04:11;;;;;;;7.03;4.50;;;24.90;44.90;;;;;;5056529;28;20021;-70
2021/05/29 11:06:38;;;;;;;8.40;5.25;;;24.70;45.30;;;;;;5054457;28;20491;-70
2021/05/29 11:09:05;;;;;;;8.73;4.57;;;24.60;45.60;;;;;;5065488;28;20045;-70
2021/05/29 11:11:47;;;;;;;8.38;5.18;;;24.60;46.50;;;;;;5055240;28;20573;-70
2021/05/29 11:14:17;;;;;;;7.50;4.82;;;24.70;46.00;;;;;;5070845;28;20119;-71
2021/05/29 11:16:49;;;;;;;8.52;4.88;;;25.00;46.90;;;;;;5061503;28;20023;-72
2021/05/29 11:19:19;;;;;;;7.40;4.50;;;25.10;46.70;;;;;;5053974;28;20040;-71
2021/05/29 11:22:04;;;;;;;6.65;3.47;;;25.30;45.80;;;;;;5063367;28;20039;-72
2021/05/29 11:24:33;;;;;;;6.95;3.70;;;25.40;44.80;;;;;;5051341;28;20498;-71
2021/05/29 11:26:59;;;;;;;5.72;3.60;;;25.40;43.70;;;;;;5057336;28;20093;-72
2021/05/29 11:29:25;;;;;;;6.90;4.47;;;25.30;44.20;;;;;;5048529;28;20029;-71
2021/05/29 11:31:52;;;;;;;8.10;4.00;;;25.30;43.90;;;;;;5050657;28;20115;-71
2021/05/29 11:34:18;;;;;;;8.23;5.10;;;25.20;44.80;;;;;;5049877;28;20072;-71
2021/05/29 11:36:44;;;;;;;7.22;4.57;;;25.10;44.70;;;;;;5045964;28;20069;-71
2021/05/29 11:39:17;;;;;;;6.75;3.95;;;24.70;44.40;;;;;;5050002;28;20074;-71
2021/05/29 11:41:43;;;;;;;6.25;3.88;;;24.60;46.30;;;;;;5052854;28;20032;-71
2021/05/29 11:44:24;;;;;;;8.98;4.07;;;24.80;46.40;;;;;;5048704;28;20047;-72
2021/05/29 11:46:50;;;;;;;9.15;4.25;;;24.80;44.70;;;;;;5049310;28;20086;-72
2021/05/29 11:49:16;;;;;;;7.13;4.18;;;25.10;46.80;;;;;;5052296;28;20429;-69
2021/05/29 11:51:46;;;;;;;6.80;4.03;;;25.40;45.90;;;;;;5059788;28;20029;-72
2021/05/29 11:54:17;;;;;;;8.23;4.07;;;25.40;45.50;;;;;;5056335;28;20045;-70
2021/05/29 11:56:51;;;;;;;7.60;3.92;;;25.70;46.20;;;;;;5052887;28;20025;-70
2021/05/29 11:59:18;;;;;;;9.02;4.63;;;25.50;46.70;;;;;;5060717;28;20029;-71
2021/05/29 12:01:48;;;;;;;5.82;3.50;;;25.60;45.10;;;;;;5051963;28;20040;-70
2021/05/29 12:04:18;;;;;;;6.18;3.42;;;25.60;45.90;;;;;;5065650;28;20082;-70
2021/05/29 12:06:59;;;;;;;6.82;4.03;;;25.40;43.50;;;;;;5056666;28;20119;-69
2021/05/29 12:09:26;;;;;;;6.70;3.42;;;25.20;45.40;;;;;;5052747;28;20128;-70
2021/05/29 12:11:56;;;;;;;5.82;3.83;;;25.40;47.10;;;;;;5053839;28;20032;-70
2021/05/29 12:14:25;;;;;;;7.60;4.05;;;25.50;45.40;;;;;;5049244;28;20863;-70
2021/05/29 12:17:02;;;;;;;7.60;4.00;;;25.60;46.30;;;;;;5051801;28;20112;-70
2021/05/29 12:19:51;;;;;;;7.05;4.32;;;25.60;46.20;;;;;;5050989;28;20032;-70
2021/05/29 12:22:22;;;;;;;7.97;4.75;;;25.70;47.70;;;;;;5057928;28;20043;-69
2021/05/29 12:24:52;;;;;;;7.65;4.28;;;25.90;46.70;;;;;;5050838;28;20051;-70
2021/05/29 12:27:26;;;;;;;6.55;3.35;;;26.10;44.10;;;;;;5050270;28;20095;-69
2021/05/29 12:30:09;;;;;;;6.03;3.20;;;26.20;44.20;;;;;;5049589;28;20085;-70
2021/05/29 12:32:40;;;;;;;;;;;26.40;43.70;;;;;;5050253;28;20077;-70
2021/05/29 12:35:11;;;;;;;7.32;3.97;;;26.40;42.30;;;;;;5062542;28;19920;-70
2021/05/29 12:37:37;;;;;;;6.50;3.72;;;26.00;42.80;;;;;;5064621;28;20057;-70
2021/05/29 12:40:12;;;;;;;7.35;3.65;;;25.80;43.60;;;;;;5064849;28;20466;-70
2021/05/29 12:42:38;;;;;;;6.57;3.55;;;25.50;44.30;;;;;;5060523;28;20051;-70
2021/05/29 12:45:28;;;;;;;9.15;4.15;;;25.40;45.70;;;;;;5064480;28;20043;-70
2021/05/29 12:48:05;;;;;;;6.45;4.03;;;25.50;46.70;;;;;;5050015;28;20028;-70
2021/05/29 12:50:39;;;;;;;5.90;3.83;;;25.70;45.90;;;;;;5066646;28;20117;-70
2021/05/29 12:53:13;;;;;;;6.03;3.40;;;25.90;45.80;;;;;;5051388;28;20024;-70
2021/05/29 12:55:40;;;;;;;5.20;3.20;;;25.80;44.60;;;;;;5054645;28;20032;-70
2021/05/29 12:58:23;;;;;;;6.85;3.75;;;25.70;45.30;;;;;;5051662;28;20051;-69
2021/05/29 13:09:28;;;;;;;6.38;3.70;;;25.60;46.10;;;;;;5053793;28;20089;-69
2021/05/29 13:11:54;;;;;;;6.72;3.60;;;25.40;44.40;;;;;;5036514;28;20128;-68